Terminal Aerodrome Forecast
Issued by NWS Louisville, KY

Home | Current Version | Previous Version | Text Only | Print | Product List | Glossary On
Versions: 1 2 3 4 5 6 7 8 9 10 11 12 13
620
FTUS43 KLMK 180530
TAFLEX
TAF
KLEX 180530Z 1806/1906 09007KT P6SM BKN060
     FM181300 15010KT P6SM FEW060
     FM181700 21016G25KT P6SM SCT045
     FM182100 24018G32KT P6SM VCSH BKN045
     FM190200 27017KT P6SM BKN050=

USA.gov is the U.S. government's official web portal to all federal, state and local government web resources and services.